sensor_id;sensor_type;location;lat;lon;timestamp;temperature;humidity
8888;DHT22;4480;52.370;9.748;2023-02-11T00:00:44;6.20;99.90
8888;DHT22;4480;52.370;9.748;2023-02-11T00:03:11;6.20;99.90
8888;DHT22;4480;52.370;9.748;2023-02-11T00:05:37;6.20;99.90
8888;DHT22;4480;52.370;9.748;2023-02-11T00:08:06;6.30;99.90
8888;DHT22;4480;52.370;9.748;2023-02-11T00:10:32;6.30;99.90
8888;DHT22;4480;52.370;9.748;2023-02-11T00:12:59;6.20;99.90
8888;DHT22;4480;52.370;9.748;2023-02-11T00:15:26;6.30;99.90
8888;DHT22;4480;52.370;9.748;2023-02-11T00:17:53;6.30;99.90
8888;DHT22;4480;52.370;9.748;2023-02-11T00:20:19;6.20;99.90
8888;DHT22;4480;52.370;9.748;2023-02-11T00:22:46;6.30;99.90
8888;DHT22;4480;52.370;9.748;2023-02-11T00:25:14;6.30;99.90
8888;DHT22;4480;52.370;9.748;2023-02-11T00:27:41;6.20;99.90
8888;DHT22;4480;52.370;9.748;2023-02-11T00:30:09;6.30;99.90
8888;DHT22;4480;52.370;9.748;2023-02-11T00:32:36;6.30;99.90
8888;DHT22;4480;52.370;9.748;2023-02-11T00:35:03;6.30;99.90
8888;DHT22;4480;52.370;9.748;2023-02-11T00:37:30;6.30;99.90
8888;DHT22;4480;52.370;9.748;2023-02-11T00:40:01;6.30;99.90
8888;DHT22;4480;52.370;9.748;2023-02-11T00:42:29;6.30;99.90
8888;DHT22;4480;52.370;9.748;2023-02-11T00:44:56;6.30;99.90
8888;DHT22;4480;52.370;9.748;2023-02-11T00:47:23;6.30;99.90
8888;DHT22;4480;52.370;9.748;2023-02-11T00:49:49;6.30;99.90
8888;DHT22;4480;52.370;9.748;2023-02-11T00:52:16;6.30;99.90
8888;DHT22;4480;52.370;9.748;2023-02-11T00:54:43;6.30;99.90
8888;DHT22;4480;52.370;9.748;2023-02-11T00:57:10;6.30;99.90
8888;DHT22;4480;52.370;9.748;2023-02-11T00:59:38;6.30;99.90
8888;DHT22;4480;52.370;9.748;2023-02-11T01:02:05;6.30;99.90
8888;DHT22;4480;52.370;9.748;2023-02-11T01:04:32;6.30;99.90
8888;DHT22;4480;52.370;9.748;2023-02-11T01:06:59;6.30;99.90
8888;DHT22;4480;52.370;9.748;2023-02-11T01:09:26;6.30;99.90
8888;DHT22;4480;52.370;9.748;2023-02-11T01:11:52;6.30;99.90
8888;DHT22;4480;52.370;9.748;2023-02-11T01:14:19;6.40;99.90
8888;DHT22;4480;52.370;9.748;2023-02-11T01:16:47;6.30;99.90
8888;DHT22;4480;52.370;9.748;2023-02-11T01:19:14;6.30;99.90
8888;DHT22;4480;52.370;9.748;2023-02-11T01:21:41;6.30;99.90
8888;DHT22;4480;52.370;9.748;2023-02-11T01:24:07;6.30;99.90
8888;DHT22;4480;52.370;9.748;2023-02-11T01:26:34;6.30;99.90
8888;DHT22;4480;52.370;9.748;2023-02-11T01:29:01;6.30;99.90
8888;DHT22;4480;52.370;9.748;2023-02-11T01:31:29;6.30;99.90
8888;DHT22;4480;52.370;9.748;2023-02-11T01:33:57;6.30;99.90
8888;DHT22;4480;52.370;9.748;2023-02-11T01:36:24;6.30;99.90
8888;DHT22;4480;52.370;9.748;2023-02-11T01:38:51;6.20;99.90
8888;DHT22;4480;52.370;9.748;2023-02-11T01:41:18;6.20;99.90
8888;DHT22;4480;52.370;9.748;2023-02-11T01:43:47;6.20;99.90
8888;DHT22;4480;52.370;9.748;2023-02-11T01:46:22;6.20;99.90
8888;DHT22;4480;52.370;9.748;2023-02-11T01:48:54;6.10;99.90
8888;DHT22;4480;52.370;9.748;2023-02-11T01:51:27;6.10;99.90
8888;DHT22;4480;52.370;9.748;2023-02-11T01:53:57;6.10;99.90
8888;DHT22;4480;52.370;9.748;2023-02-11T01:56:46;6.00;99.90
8888;DHT22;4480;52.370;9.748;2023-02-11T01:59:40;6.00;99.90
8888;DHT22;4480;52.370;9.748;2023-02-11T02:02:11;6.00;99.90
8888;DHT22;4480;52.370;9.748;2023-02-11T02:04:46;5.90;99.90
8888;DHT22;4480;52.370;9.748;2023-02-11T02:07:18;5.90;99.90
8888;DHT22;4480;52.370;9.748;2023-02-11T02:09:54;5.90;99.90
8888;DHT22;4480;52.370;9.748;2023-02-11T02:12:21;5.90;99.90
8888;DHT22;4480;52.370;9.748;2023-02-11T02:14:48;5.90;99.90
8888;DHT22;4480;52.370;9.748;2023-02-11T02:17:27;6.00;99.90
8888;DHT22;4480;52.370;9.748;2023-02-11T02:20:42;6.00;99.90
8888;DHT22;4480;52.370;9.748;2023-02-11T02:23:29;6.00;99.90
8888;DHT22;4480;52.370;9.748;2023-02-11T02:26:36;6.00;99.90
8888;DHT22;4480;52.370;9.748;2023-02-11T02:29:18;6.00;99.90
8888;DHT22;4480;52.370;9.748;2023-02-11T02:31:58;6.10;99.90
8888;DHT22;4480;52.370;9.748;2023-02-11T02:34:35;6.10;99.90
8888;DHT22;4480;52.370;9.748;2023-02-11T02:37:07;6.10;99.90
8888;DHT22;4480;52.370;9.748;2023-02-11T02:39:36;6.10;99.90
8888;DHT22;4480;52.370;9.748;2023-02-11T02:42:03;6.10;99.90
8888;DHT22;4480;52.370;9.748;2023-02-11T02:44:31;6.20;99.90
8888;DHT22;4480;52.370;9.748;2023-02-11T02:46:58;6.10;99.90
8888;DHT22;4480;52.370;9.748;2023-02-11T02:49:24;6.20;99.90
8888;DHT22;4480;52.370;9.748;2023-02-11T02:52:05;6.20;99.90
8888;DHT22;4480;52.370;9.748;2023-02-11T02:55:07;6.20;99.90
8888;DHT22;4480;52.370;9.748;2023-02-11T02:57:45;6.20;99.90
8888;DHT22;4480;52.370;9.748;2023-02-11T03:00:23;6.20;99.90
8888;DHT22;4480;52.370;9.748;2023-02-11T03:03:00;6.30;99.90
8888;DHT22;4480;52.370;9.748;2023-02-11T03:05:37;6.30;99.90
8888;DHT22;4480;52.370;9.748;2023-02-11T03:08:12;6.30;99.90
8888;DHT22;4480;52.370;9.748;2023-02-11T03:10:44;6.30;99.90
8888;DHT22;4480;52.370;9.748;2023-02-11T03:13:12;6.30;99.90
8888;DHT22;4480;52.370;9.748;2023-02-11T03:15:43;6.30;99.90
8888;DHT22;4480;52.370;9.748;2023-02-11T03:18:14;6.30;99.90
8888;DHT22;4480;52.370;9.748;2023-02-11T03:20:44;6.40;99.90
8888;DHT22;4480;52.370;9.748;2023-02-11T03:23:17;6.40;99.90
8888;DHT22;4480;52.370;9.748;2023-02-11T03:25:49;6.40;99.90
8888;DHT22;4480;52.370;9.748;2023-02-11T03:28:22;6.40;99.90
8888;DHT22;4480;52.370;9.748;2023-02-11T03:30:56;6.40;99.90
8888;DHT22;4480;52.370;9.748;2023-02-11T03:33:26;6.40;99.90
8888;DHT22;4480;52.370;9.748;2023-02-11T03:35:57;6.40;99.90
8888;DHT22;4480;52.370;9.748;2023-02-11T03:38:28;6.40;99.90
8888;DHT22;4480;52.370;9.748;2023-02-11T03:40:57;6.40;99.90
8888;DHT22;4480;52.370;9.748;2023-02-11T03:43:30;6.40;99.90
8888;DHT22;4480;52.370;9.748;2023-02-11T03:45:59;6.50;99.90
8888;DHT22;4480;52.370;9.748;2023-02-11T03:48:30;6.40;99.90
8888;DHT22;4480;52.370;9.748;2023-02-11T03:51:00;6.50;99.90
8888;DHT22;4480;52.370;9.748;2023-02-11T03:53:29;6.40;99.90
8888;DHT22;4480;52.370;9.748;2023-02-11T03:55:59;6.40;99.90
8888;DHT22;4480;52.370;9.748;2023-02-11T03:58:28;6.50;99.90
8888;DHT22;4480;52.370;9.748;2023-02-11T04:00:55;6.50;99.90
8888;DHT22;4480;52.370;9.748;2023-02-11T04:03:21;6.50;99.90
8888;DHT22;4480;52.370;9.748;2023-02-11T04:05:48;6.50;99.90
8888;DHT22;4480;52.370;9.748;2023-02-11T04:11:08;6.50;99.90
8888;DHT22;4480;52.370;9.748;2023-02-11T04:13:35;6.50;99.90
8888;DHT22;4480;52.370;9.748;2023-02-11T04:16:02;6.40;99.90
8888;DHT22;4480;52.370;9.748;2023-02-11T04:18:28;6.40;99.90
8888;DHT22;4480;52.370;9.748;2023-02-11T04:20:55;6.40;99.90
8888;DHT22;4480;52.370;9.748;2023-02-11T04:25:53;6.40;99.90
8888;DHT22;4480;52.370;9.748;2023-02-11T04:28:21;6.40;99.90
8888;DHT22;4480;52.370;9.748;2023-02-11T04:30:48;6.40;99.90
8888;DHT22;4480;52.370;9.748;2023-02-11T04:33:16;6.40;99.90
8888;DHT22;4480;52.370;9.748;2023-02-11T04:35:42;6.40;99.90
8888;DHT22;4480;52.370;9.748;2023-02-11T04:38:09;6.40;99.90
8888;DHT22;4480;52.370;9.748;2023-02-11T04:40:36;6.40;99.90
8888;DHT22;4480;52.370;9.748;2023-02-11T04:43:03;6.40;99.90
8888;DHT22;4480;52.370;9.748;2023-02-11T04:45:31;6.40;99.90
8888;DHT22;4480;52.370;9.748;2023-02-11T04:47:58;6.40;99.90
8888;DHT22;4480;52.370;9.748;2023-02-11T04:50:25;6.40;99.90
8888;DHT22;4480;52.370;9.748;2023-02-11T04:52:51;6.50;99.90
8888;DHT22;4480;52.370;9.748;2023-02-11T04:55:18;6.50;99.90
8888;DHT22;4480;52.370;9.748;2023-02-11T04:57:45;6.50;99.90
8888;DHT22;4480;52.370;9.748;2023-02-11T05:00:13;6.50;99.90
8888;DHT22;4480;52.370;9.748;2023-02-11T05:02:41;6.50;99.90
8888;DHT22;4480;52.370;9.748;2023-02-11T05:05:08;6.50;99.90
8888;DHT22;4480;52.370;9.748;2023-02-11T05:07:34;6.60;99.90
8888;DHT22;4480;52.370;9.748;2023-02-11T05:10:01;6.60;99.90
8888;DHT22;4480;52.370;9.748;2023-02-11T05:12:28;6.60;99.90
8888;DHT22;4480;52.370;9.748;2023-02-11T05:14:55;6.60;99.90
8888;DHT22;4480;52.370;9.748;2023-02-11T05:17:22;6.60;99.90
8888;DHT22;4480;52.370;9.748;2023-02-11T05:19:50;6.60;99.90
8888;DHT22;4480;52.370;9.748;2023-02-11T05:22:17;6.60;99.90
8888;DHT22;4480;52.370;9.748;2023-02-11T05:24:44;6.60;99.90
8888;DHT22;4480;52.370;9.748;2023-02-11T05:27:10;6.70;99.90
8888;DHT22;4480;52.370;9.748;2023-02-11T05:29:37;6.70;99.90
8888;DHT22;4480;52.370;9.748;2023-02-11T05:32:04;6.70;99.90
8888;DHT22;4480;52.370;9.748;2023-02-11T05:34:31;6.70;99.90
8888;DHT22;4480;52.370;9.748;2023-02-11T05:36:59;6.70;99.90
8888;DHT22;4480;52.370;9.748;2023-02-11T05:39:26;6.70;99.90
8888;DHT22;4480;52.370;9.748;2023-02-11T05:41:53;6.80;99.90
8888;DHT22;4480;52.370;9.748;2023-02-11T05:44:20;6.80;99.90
8888;DHT22;4480;52.370;9.748;2023-02-11T05:46:47;6.80;99.90
8888;DHT22;4480;52.370;9.748;2023-02-11T05:49:14;6.80;99.90
8888;DHT22;4480;52.370;9.748;2023-02-11T05:51:41;6.80;99.90
8888;DHT22;4480;52.370;9.748;2023-02-11T05:54:09;6.80;99.90
8888;DHT22;4480;52.370;9.748;2023-02-11T05:56:36;6.80;99.90
8888;DHT22;4480;52.370;9.748;2023-02-11T05:59:03;6.80;99.90
8888;DHT22;4480;52.370;9.748;2023-02-11T06:01:30;6.80;99.90
8888;DHT22;4480;52.370;9.748;2023-02-11T06:03:57;6.80;99.90
8888;DHT22;4480;52.370;9.748;2023-02-11T06:06:24;6.80;99.90
8888;DHT22;4480;52.370;9.748;2023-02-11T06:08:51;6.80;99.90
8888;DHT22;4480;52.370;9.748;2023-02-11T06:11:19;6.80;99.90
8888;DHT22;4480;52.370;9.748;2023-02-11T06:13:45;6.80;99.90
8888;DHT22;4480;52.370;9.748;2023-02-11T06:16:12;6.80;99.90
8888;DHT22;4480;52.370;9.748;2023-02-11T06:18:39;6.80;99.90
8888;DHT22;4480;52.370;9.748;2023-02-11T06:21:06;6.80;99.90
8888;DHT22;4480;52.370;9.748;2023-02-11T06:23:33;6.80;99.90
8888;DHT22;4480;52.370;9.748;2023-02-11T06:26:01;6.90;99.90
8888;DHT22;4480;52.370;9.748;2023-02-11T06:28:29;6.90;99.90
8888;DHT22;4480;52.370;9.748;2023-02-11T06:30:56;6.90;99.90
8888;DHT22;4480;52.370;9.748;2023-02-11T06:33:24;6.90;99.90
8888;DHT22;4480;52.370;9.748;2023-02-11T06:35:50;6.90;99.90
8888;DHT22;4480;52.370;9.748;2023-02-11T06:38:17;6.90;99.90
8888;DHT22;4480;52.370;9.748;2023-02-11T06:40:46;6.90;99.90
8888;DHT22;4480;52.370;9.748;2023-02-11T06:43:13;6.90;99.90
8888;DHT22;4480;52.370;9.748;2023-02-11T06:45:42;6.90;99.90
8888;DHT22;4480;52.370;9.748;2023-02-11T06:48:09;6.90;99.90
8888;DHT22;4480;52.370;9.748;2023-02-11T06:50:35;6.90;99.90
8888;DHT22;4480;52.370;9.748;2023-02-11T06:53:02;6.90;99.90
8888;DHT22;4480;52.370;9.748;2023-02-11T06:55:29;6.90;99.90
8888;DHT22;4480;52.370;9.748;2023-02-11T06:57:56;6.90;99.90
8888;DHT22;4480;52.370;9.748;2023-02-11T07:00:22;6.90;99.90
8888;DHT22;4480;52.370;9.748;2023-02-11T07:02:51;6.90;99.90
8888;DHT22;4480;52.370;9.748;2023-02-11T07:05:18;6.90;99.90
8888;DHT22;4480;52.370;9.748;2023-02-11T07:07:45;6.90;99.90
8888;DHT22;4480;52.370;9.748;2023-02-11T07:10:12;6.90;99.90
8888;DHT22;4480;52.370;9.748;2023-02-11T07:12:39;7.00;99.90
8888;DHT22;4480;52.370;9.748;2023-02-11T07:15:06;7.00;99.90
8888;DHT22;4480;52.370;9.748;2023-02-11T07:17:33;7.00;99.90
8888;DHT22;4480;52.370;9.748;2023-02-11T07:20:02;7.00;99.90
8888;DHT22;4480;52.370;9.748;2023-02-11T07:22:29;7.00;99.90
8888;DHT22;4480;52.370;9.748;2023-02-11T07:24:56;7.00;99.90
8888;DHT22;4480;52.370;9.748;2023-02-11T07:27:22;7.00;99.90
8888;DHT22;4480;52.370;9.748;2023-02-11T07:29:49;7.00;99.90
8888;DHT22;4480;52.370;9.748;2023-02-11T07:32:16;7.00;99.90
8888;DHT22;4480;52.370;9.748;2023-02-11T07:34:43;7.00;99.90
8888;DHT22;4480;52.370;9.748;2023-02-11T07:37:11;7.00;99.90
8888;DHT22;4480;52.370;9.748;2023-02-11T07:39:38;7.00;99.90
8888;DHT22;4480;52.370;9.748;2023-02-11T07:42:05;7.00;99.90
8888;DHT22;4480;52.370;9.748;2023-02-11T07:44:32;7.00;99.90
8888;DHT22;4480;52.370;9.748;2023-02-11T07:46:59;7.00;99.90
8888;DHT22;4480;52.370;9.748;2023-02-11T07:49:26;7.10;99.90
8888;DHT22;4480;52.370;9.748;2023-02-11T07:51:53;7.10;99.90
8888;DHT22;4480;52.370;9.748;2023-02-11T07:54:21;7.10;99.90
8888;DHT22;4480;52.370;9.748;2023-02-11T07:56:48;7.10;99.90
8888;DHT22;4480;52.370;9.748;2023-02-11T07:59:15;7.20;99.90
8888;DHT22;4480;52.370;9.748;2023-02-11T08:01:42;7.20;99.90
8888;DHT22;4480;52.370;9.748;2023-02-11T08:04:08;7.20;99.90
8888;DHT22;4480;52.370;9.748;2023-02-11T08:06:40;7.20;99.90
8888;DHT22;4480;52.370;9.748;2023-02-11T08:09:09;7.20;99.90
8888;DHT22;4480;52.370;9.748;2023-02-11T08:11:40;7.20;99.90
8888;DHT22;4480;52.370;9.748;2023-02-11T08:14:07;7.20;99.90
8888;DHT22;4480;52.370;9.748;2023-02-11T08:16:35;7.20;99.90
8888;DHT22;4480;52.370;9.748;2023-02-11T08:19:05;7.20;99.90
8888;DHT22;4480;52.370;9.748;2023-02-11T08:21:32;7.20;99.90
8888;DHT22;4480;52.370;9.748;2023-02-11T08:24:00;7.20;99.90
8888;DHT22;4480;52.370;9.748;2023-02-11T08:26:29;7.20;99.90
8888;DHT22;4480;52.370;9.748;2023-02-11T08:28:58;7.20;99.90
8888;DHT22;4480;52.370;9.748;2023-02-11T08:31:26;7.20;99.90
8888;DHT22;4480;52.370;9.748;2023-02-11T08:33:54;7.20;99.90
8888;DHT22;4480;52.370;9.748;2023-02-11T08:36:24;7.20;99.90
8888;DHT22;4480;52.370;9.748;2023-02-11T08:38:53;7.20;99.90
8888;DHT22;4480;52.370;9.748;2023-02-11T08:41:20;7.20;99.90
8888;DHT22;4480;52.370;9.748;2023-02-11T08:43:46;7.30;99.90
8888;DHT22;4480;52.370;9.748;2023-02-11T08:46:17;7.30;99.90
8888;DHT22;4480;52.370;9.748;2023-02-11T08:48:45;7.30;99.90
8888;DHT22;4480;52.370;9.748;2023-02-11T08:51:13;7.30;99.90
8888;DHT22;4480;52.370;9.748;2023-02-11T08:53:40;7.30;99.90
8888;DHT22;4480;52.370;9.748;2023-02-11T08:56:09;7.30;99.90
8888;DHT22;4480;52.370;9.748;2023-02-11T08:58:36;7.30;99.90
8888;DHT22;4480;52.370;9.748;2023-02-11T09:01:08;7.30;99.90
8888;DHT22;4480;52.370;9.748;2023-02-11T09:03:37;7.40;99.90
8888;DHT22;4480;52.370;9.748;2023-02-11T09:06:05;7.40;99.90
8888;DHT22;4480;52.370;9.748;2023-02-11T09:08:33;7.40;99.90
8888;DHT22;4480;52.370;9.748;2023-02-11T09:11:00;7.50;99.90
8888;DHT22;4480;52.370;9.748;2023-02-11T09:13:28;7.50;99.90
8888;DHT22;4480;52.370;9.748;2023-02-11T09:15:55;7.50;99.90
8888;DHT22;4480;52.370;9.748;2023-02-11T09:18:21;7.50;99.90
8888;DHT22;4480;52.370;9.748;2023-02-11T09:20:50;7.50;99.90
8888;DHT22;4480;52.370;9.748;2023-02-11T09:23:17;7.50;99.90
8888;DHT22;4480;52.370;9.748;2023-02-11T09:25:43;7.50;99.90
8888;DHT22;4480;52.370;9.748;2023-02-11T09:28:10;7.50;99.90
8888;DHT22;4480;52.370;9.748;2023-02-11T09:30:37;7.50;99.90
8888;DHT22;4480;52.370;9.748;2023-02-11T09:33:04;7.50;99.90
8888;DHT22;4480;52.370;9.748;2023-02-11T09:35:32;7.50;99.90
8888;DHT22;4480;52.370;9.748;2023-02-11T09:38:00;7.50;99.90
8888;DHT22;4480;52.370;9.748;2023-02-11T09:40:27;7.50;99.90
8888;DHT22;4480;52.370;9.748;2023-02-11T09:43:01;7.50;99.90
8888;DHT22;4480;52.370;9.748;2023-02-11T09:45:30;7.50;99.90
8888;DHT22;4480;52.370;9.748;2023-02-11T09:47:59;7.50;99.90
8888;DHT22;4480;52.370;9.748;2023-02-11T09:50:29;7.50;99.90
8888;DHT22;4480;52.370;9.748;2023-02-11T09:53:01;7.50;99.90
8888;DHT22;4480;52.370;9.748;2023-02-11T09:55:30;7.50;99.90
8888;DHT22;4480;52.370;9.748;2023-02-11T09:58:03;7.60;99.90
8888;DHT22;4480;52.370;9.748;2023-02-11T10:00:33;7.60;99.90
8888;DHT22;4480;52.370;9.748;2023-02-11T10:06:26;7.60;99.90
8888;DHT22;4480;52.370;9.748;2023-02-11T10:09:02;7.60;99.90
8888;DHT22;4480;52.370;9.748;2023-02-11T10:11:35;7.60;99.90
8888;DHT22;4480;52.370;9.748;2023-02-11T10:14:14;7.60;99.90
8888;DHT22;4480;52.370;9.748;2023-02-11T10:16:54;7.60;99.90
8888;DHT22;4480;52.370;9.748;2023-02-11T10:19:34;7.60;99.90
8888;DHT22;4480;52.370;9.748;2023-02-11T10:22:10;7.60;99.90
8888;DHT22;4480;52.370;9.748;2023-02-11T10:24:40;7.60;99.90
8888;DHT22;4480;52.370;9.748;2023-02-11T10:27:15;7.60;99.90
8888;DHT22;4480;52.370;9.748;2023-02-11T10:29:46;7.70;99.90
8888;DHT22;4480;52.370;9.748;2023-02-11T10:32:26;7.70;99.90
8888;DHT22;4480;52.370;9.748;2023-02-11T10:34:59;7.70;99.90
8888;DHT22;4480;52.370;9.748;2023-02-11T10:37:27;7.70;99.90
8888;DHT22;4480;52.370;9.748;2023-02-11T10:39:55;7.70;99.90
8888;DHT22;4480;52.370;9.748;2023-02-11T10:42:22;7.80;99.90
8888;DHT22;4480;52.370;9.748;2023-02-11T10:44:56;7.80;99.90
8888;DHT22;4480;52.370;9.748;2023-02-11T10:47:27;7.80;99.90
8888;DHT22;4480;52.370;9.748;2023-02-11T10:49:57;7.80;99.90
8888;DHT22;4480;52.370;9.748;2023-02-11T10:52:28;7.80;99.90
8888;DHT22;4480;52.370;9.748;2023-02-11T10:55:04;7.90;99.90
8888;DHT22;4480;52.370;9.748;2023-02-11T10:57:33;7.90;99.90
8888;DHT22;4480;52.370;9.748;2023-02-11T11:00:07;7.90;99.90
8888;DHT22;4480;52.370;9.748;2023-02-11T11:02:36;7.90;99.90
8888;DHT22;4480;52.370;9.748;2023-02-11T11:05:15;7.90;99.90
8888;DHT22;4480;52.370;9.748;2023-02-11T11:07:51;7.90;99.90
8888;DHT22;4480;52.370;9.748;2023-02-11T11:10:29;7.90;99.90
8888;DHT22;4480;52.370;9.748;2023-02-11T11:12:57;7.90;99.90
8888;DHT22;4480;52.370;9.748;2023-02-11T11:15:25;7.90;99.90
8888;DHT22;4480;52.370;9.748;2023-02-11T11:18:11;7.90;99.90
8888;DHT22;4480;52.370;9.748;2023-02-11T11:20:43;7.90;99.90
8888;DHT22;4480;52.370;9.748;2023-02-11T11:23:15;7.90;99.90
8888;DHT22;4480;52.370;9.748;2023-02-11T11:25:59;7.90;99.90
8888;DHT22;4480;52.370;9.748;2023-02-11T11:28:28;7.90;99.90
8888;DHT22;4480;52.370;9.748;2023-02-11T11:30:56;7.80;99.90
8888;DHT22;4480;52.370;9.748;2023-02-11T11:33:27;7.80;99.90
8888;DHT22;4480;52.370;9.748;2023-02-11T11:36:00;7.80;99.90
8888;DHT22;4480;52.370;9.748;2023-02-11T11:38:29;7.80;99.90
8888;DHT22;4480;52.370;9.748;2023-02-11T11:41:23;7.80;99.90
8888;DHT22;4480;52.370;9.748;2023-02-11T11:43:58;7.90;99.90
8888;DHT22;4480;52.370;9.748;2023-02-11T11:46:27;7.90;99.90
8888;DHT22;4480;52.370;9.748;2023-02-11T11:49:01;7.90;99.90
8888;DHT22;4480;52.370;9.748;2023-02-11T11:51:30;7.80;99.90
8888;DHT22;4480;52.370;9.748;2023-02-11T11:54:00;7.80;99.90
8888;DHT22;4480;52.370;9.748;2023-02-11T11:56:33;7.80;99.90
8888;DHT22;4480;52.370;9.748;2023-02-11T11:59:02;7.80;99.90
8888;DHT22;4480;52.370;9.748;2023-02-11T12:01:40;7.70;99.90
8888;DHT22;4480;52.370;9.748;2023-02-11T12:04:19;7.70;99.90
8888;DHT22;4480;52.370;9.748;2023-02-11T12:07:04;7.70;99.90
8888;DHT22;4480;52.370;9.748;2023-02-11T12:09:39;7.70;99.90
8888;DHT22;4480;52.370;9.748;2023-02-11T12:12:25;7.60;99.90
8888;DHT22;4480;52.370;9.748;2023-02-11T12:15:16;7.70;99.90
8888;DHT22;4480;52.370;9.748;2023-02-11T12:18:00;7.70;99.90
8888;DHT22;4480;52.370;9.748;2023-02-11T12:20:37;7.60;99.90
8888;DHT22;4480;52.370;9.748;2023-02-11T12:23:27;7.60;99.90
8888;DHT22;4480;52.370;9.748;2023-02-11T12:26:05;7.70;99.90
8888;DHT22;4480;52.370;9.748;2023-02-11T12:28:41;7.70;99.90
8888;DHT22;4480;52.370;9.748;2023-02-11T12:31:20;7.60;99.90
8888;DHT22;4480;52.370;9.748;2023-02-11T12:34:17;7.60;99.90
8888;DHT22;4480;52.370;9.748;2023-02-11T12:36:59;7.60;99.90
8888;DHT22;4480;52.370;9.748;2023-02-11T12:39:34;7.70;99.90
8888;DHT22;4480;52.370;9.748;2023-02-11T12:42:27;7.70;99.90
8888;DHT22;4480;52.370;9.748;2023-02-11T12:45:24;7.70;99.90
8888;DHT22;4480;52.370;9.748;2023-02-11T12:48:00;7.70;99.90
8888;DHT22;4480;52.370;9.748;2023-02-11T12:50:37;7.80;99.90
8888;DHT22;4480;52.370;9.748;2023-02-11T12:53:23;7.80;99.90
8888;DHT22;4480;52.370;9.748;2023-02-11T12:55:57;7.80;99.90
8888;DHT22;4480;52.370;9.748;2023-02-11T12:58:27;7.80;99.90
8888;DHT22;4480;52.370;9.748;2023-02-11T13:01:00;7.80;99.90
8888;DHT22;4480;52.370;9.748;2023-02-11T13:03:35;7.80;99.90
8888;DHT22;4480;52.370;9.748;2023-02-11T13:06:07;7.90;99.90
8888;DHT22;4480;52.370;9.748;2023-02-11T13:08:39;7.80;99.90
8888;DHT22;4480;52.370;9.748;2023-02-11T13:11:08;7.80;99.90
8888;DHT22;4480;52.370;9.748;2023-02-11T13:13:47;7.80;99.90
8888;DHT22;4480;52.370;9.748;2023-02-11T13:16:22;7.80;99.90
8888;DHT22;4480;52.370;9.748;2023-02-11T13:18:57;7.80;99.90
8888;DHT22;4480;52.370;9.748;2023-02-11T13:21:37;7.80;99.90
8888;DHT22;4480;52.370;9.748;2023-02-11T13:24:16;7.80;99.90
8888;DHT22;4480;52.370;9.748;2023-02-11T13:26:48;7.80;99.90
8888;DHT22;4480;52.370;9.748;2023-02-11T13:29:27;7.80;99.90
8888;DHT22;4480;52.370;9.748;2023-02-11T13:32:06;7.80;99.90
8888;DHT22;4480;52.370;9.748;2023-02-11T13:34:55;7.90;99.90
8888;DHT22;4480;52.370;9.748;2023-02-11T13:37:24;8.00;99.90
8888;DHT22;4480;52.370;9.748;2023-02-11T13:39:56;8.00;99.90
8888;DHT22;4480;52.370;9.748;2023-02-11T13:42:24;8.00;99.90
8888;DHT22;4480;52.370;9.748;2023-02-11T13:44:51;8.00;99.90
8888;DHT22;4480;52.370;9.748;2023-02-11T13:47:26;8.00;99.90
8888;DHT22;4480;52.370;9.748;2023-02-11T13:49:55;8.00;99.90
8888;DHT22;4480;52.370;9.748;2023-02-11T13:52:25;8.00;99.90
8888;DHT22;4480;52.370;9.748;2023-02-11T13:54:54;8.00;99.90
8888;DHT22;4480;52.370;9.748;2023-02-11T13:57:38;8.00;99.90
8888;DHT22;4480;52.370;9.748;2023-02-11T14:03:22;8.10;99.90
8888;DHT22;4480;52.370;9.748;2023-02-11T14:06:20;8.10;99.90
8888;DHT22;4480;52.370;9.748;2023-02-11T14:09:37;8.00;99.90
8888;DHT22;4480;52.370;9.748;2023-02-11T14:12:37;8.00;99.90
8888;DHT22;4480;52.370;9.748;2023-02-11T14:15:26;8.00;99.90
8888;DHT22;4480;52.370;9.748;2023-02-11T14:17:53;8.00;99.90
8888;DHT22;4480;52.370;9.748;2023-02-11T14:20:40;8.00;99.90
8888;DHT22;4480;52.370;9.748;2023-02-11T14:23:23;8.00;99.90
8888;DHT22;4480;52.370;9.748;2023-02-11T14:28:56;8.00;99.90
8888;DHT22;4480;52.370;9.748;2023-02-11T14:31:28;8.10;99.90
8888;DHT22;4480;52.370;9.748;2023-02-11T14:34:07;8.00;99.90
8888;DHT22;4480;52.370;9.748;2023-02-11T14:36:57;8.10;99.90
8888;DHT22;4480;52.370;9.748;2023-02-11T14:39:36;8.10;99.90
8888;DHT22;4480;52.370;9.748;2023-02-11T14:42:14;8.10;99.90
8888;DHT22;4480;52.370;9.748;2023-02-11T14:44:44;8.10;99.90
8888;DHT22;4480;52.370;9.748;2023-02-11T14:47:17;8.10;99.90
8888;DHT22;4480;52.370;9.748;2023-02-11T14:49:44;8.10;99.90
8888;DHT22;4480;52.370;9.748;2023-02-11T14:52:22;8.10;99.90
8888;DHT22;4480;52.370;9.748;2023-02-11T14:54:58;8.00;99.90
8888;DHT22;4480;52.370;9.748;2023-02-11T14:57:28;8.00;99.90
8888;DHT22;4480;52.370;9.748;2023-02-11T14:59:57;8.00;99.90
8888;DHT22;4480;52.370;9.748;2023-02-11T15:02:29;8.00;99.90
8888;DHT22;4480;52.370;9.748;2023-02-11T15:05:15;8.00;99.90
8888;DHT22;4480;52.370;9.748;2023-02-11T15:07:46;8.00;99.90
8888;DHT22;4480;52.370;9.748;2023-02-11T15:10:26;8.00;99.90
8888;DHT22;4480;52.370;9.748;2023-02-11T15:12:54;8.00;99.90
8888;DHT22;4480;52.370;9.748;2023-02-11T15:15:21;8.00;99.90
8888;DHT22;4480;52.370;9.748;2023-02-11T15:17:48;8.00;99.90
8888;DHT22;4480;52.370;9.748;2023-02-11T15:20:19;8.10;99.90
8888;DHT22;4480;52.370;9.748;2023-02-11T15:22:53;8.00;99.90
8888;DHT22;4480;52.370;9.748;2023-02-11T15:25:21;8.10;99.90
8888;DHT22;4480;52.370;9.748;2023-02-11T15:27:50;8.10;99.90
8888;DHT22;4480;52.370;9.748;2023-02-11T15:30:24;8.10;99.90
8888;DHT22;4480;52.370;9.748;2023-02-11T15:32:52;8.10;99.90
8888;DHT22;4480;52.370;9.748;2023-02-11T15:35:24;8.10;99.90
8888;DHT22;4480;52.370;9.748;2023-02-11T15:37:54;8.10;99.90
8888;DHT22;4480;52.370;9.748;2023-02-11T15:40:23;8.10;99.90
8888;DHT22;4480;52.370;9.748;2023-02-11T15:42:53;8.10;99.90
8888;DHT22;4480;52.370;9.748;2023-02-11T15:45:22;8.10;99.90
8888;DHT22;4480;52.370;9.748;2023-02-11T15:47:55;8.10;99.90
8888;DHT22;4480;52.370;9.748;2023-02-11T15:50:24;8.10;99.90
8888;DHT22;4480;52.370;9.748;2023-02-11T15:52:54;8.10;99.90
8888;DHT22;4480;52.370;9.748;2023-02-11T15:55:22;8.10;99.90
8888;DHT22;4480;52.370;9.748;2023-02-11T15:57:52;8.10;99.90
8888;DHT22;4480;52.370;9.748;2023-02-11T16:00:23;8.10;99.90
8888;DHT22;4480;52.370;9.748;2023-02-11T16:02:50;8.00;99.90
8888;DHT22;4480;52.370;9.748;2023-02-11T16:05:24;8.10;99.90
8888;DHT22;4480;52.370;9.748;2023-02-11T16:07:52;8.10;99.90
8888;DHT22;4480;52.370;9.748;2023-02-11T16:10:23;8.10;99.90
8888;DHT22;4480;52.370;9.748;2023-02-11T16:12:55;8.00;99.90
8888;DHT22;4480;52.370;9.748;2023-02-11T16:15:29;8.10;99.90
8888;DHT22;4480;52.370;9.748;2023-02-11T16:17:56;8.00;99.90
8888;DHT22;4480;52.370;9.748;2023-02-11T16:20:24;8.00;99.90
8888;DHT22;4480;52.370;9.748;2023-02-11T16:22:51;8.00;99.90
8888;DHT22;4480;52.370;9.748;2023-02-11T16:25:21;8.00;99.90
8888;DHT22;4480;52.370;9.748;2023-02-11T16:27:50;8.00;99.90
8888;DHT22;4480;52.370;9.748;2023-02-11T16:30:25;8.00;99.90
8888;DHT22;4480;52.370;9.748;2023-02-11T16:32:53;8.00;99.90
8888;DHT22;4480;52.370;9.748;2023-02-11T16:35:20;8.00;99.90
8888;DHT22;4480;52.370;9.748;2023-02-11T16:37:47;8.00;99.90
8888;DHT22;4480;52.370;9.748;2023-02-11T16:40:14;8.00;99.90
8888;DHT22;4480;52.370;9.748;2023-02-11T16:42:42;8.00;99.90
8888;DHT22;4480;52.370;9.748;2023-02-11T16:45:09;8.10;99.90
8888;DHT22;4480;52.370;9.748;2023-02-11T16:47:36;8.10;99.90
8888;DHT22;4480;52.370;9.748;2023-02-11T16:50:07;8.00;99.90
8888;DHT22;4480;52.370;9.748;2023-02-11T16:52:35;8.00;99.90
8888;DHT22;4480;52.370;9.748;2023-02-11T16:55:03;8.10;99.90
8888;DHT22;4480;52.370;9.748;2023-02-11T16:57:31;8.10;99.90